Algoa, Arkansas
Current Conditions -  °F | °C
As of 6:56 PM on Wednesday 26 Nov 2014 (Local Time) from KM19 Reporting Station
Clear Clear  
Wind Chill:   Ceiling: Unl
Heat Index:   Visibility: 10mi
Dew Point: -1°   Wind: 8mph
Humidity: 60%   Direction: 290°WNW
Pressure: 30.15"   Gusts: NA
Location:  35.5678°N, 91.2073°W
Report Text: KM19 270056Z AUTO 29007KT 10SM CLR 06/M01 A3015 RMK AO2 T00611011 SLP210
Loading
Personal Weather Stations






























Interactive Weather Map New forecast layout! Learn more

10-Day Weather Forecast

Advertisements
Track Severe Weather on mobile